sensor_id;sensor_type;location;lat;lon;timestamp;P1;durP1;ratioP1;P2;durP2;ratioP2
53959;SDS011;39866;48.638;-2.020;2024-01-15T00:01:54;25.42;;;22.75;;
53959;SDS011;39866;48.638;-2.020;2024-01-15T00:04:20;24.27;;;21.85;;
53959;SDS011;39866;48.638;-2.020;2024-01-15T00:06:45;24.02;;;21.55;;
53959;SDS011;39866;48.638;-2.020;2024-01-15T00:09:10;24.35;;;21.75;;
53959;SDS011;39866;48.638;-2.020;2024-01-15T00:11:35;23.52;;;21.02;;
53959;SDS011;39866;48.638;-2.020;2024-01-15T00:14:01;23.95;;;21.40;;
53959;SDS011;39866;48.638;-2.020;2024-01-15T00:16:26;24.15;;;21.58;;
53959;SDS011;39866;48.638;-2.020;2024-01-15T00:18:52;24.20;;;21.63;;
53959;SDS011;39866;48.638;-2.020;2024-01-15T00:21:17;23.42;;;21.02;;
53959;SDS011;39866;48.638;-2.020;2024-01-15T00:23:43;21.70;;;19.35;;
53959;SDS011;39866;48.638;-2.020;2024-01-15T00:26:09;22.70;;;20.35;;
53959;SDS011;39866;48.638;-2.020;2024-01-15T00:28:35;22.80;;;20.40;;
53959;SDS011;39866;48.638;-2.020;2024-01-15T00:31:01;22.35;;;20.05;;
53959;SDS011;39866;48.638;-2.020;2024-01-15T00:33:26;23.38;;;21.05;;
53959;SDS011;39866;48.638;-2.020;2024-01-15T00:35:52;24.02;;;21.55;;
53959;SDS011;39866;48.638;-2.020;2024-01-15T00:38:17;24.95;;;22.33;;
53959;SDS011;39866;48.638;-2.020;2024-01-15T00:40:42;23.58;;;21.08;;
53959;SDS011;39866;48.638;-2.020;2024-01-15T00:43:08;23.05;;;20.65;;
53959;SDS011;39866;48.638;-2.020;2024-01-15T00:45:33;22.20;;;19.90;;
53959;SDS011;39866;48.638;-2.020;2024-01-15T00:47:58;22.88;;;20.55;;
53959;SDS011;39866;48.638;-2.020;2024-01-15T00:50:26;23.08;;;20.58;;
53959;SDS011;39866;48.638;-2.020;2024-01-15T00:52:51;22.17;;;19.88;;
53959;SDS011;39866;48.638;-2.020;2024-01-15T00:55:16;22.02;;;19.73;;
53959;SDS011;39866;48.638;-2.020;2024-01-15T00:57:42;20.80;;;18.70;;
53959;SDS011;39866;48.638;-2.020;2024-01-15T01:00:07;23.10;;;20.70;;
53959;SDS011;39866;48.638;-2.020;2024-01-15T01:02:34;22.23;;;19.52;;
53959;SDS011;39866;48.638;-2.020;2024-01-15T01:04:59;22.63;;;20.20;;
53959;SDS011;39866;48.638;-2.020;2024-01-15T01:07:25;21.33;;;19.13;;
53959;SDS011;39866;48.638;-2.020;2024-01-15T01:09:50;21.38;;;19.13;;
53959;SDS011;39866;48.638;-2.020;2024-01-15T01:12:16;22.77;;;20.48;;
53959;SDS011;39866;48.638;-2.020;2024-01-15T01:14:42;21.85;;;19.67;;
53959;SDS011;39866;48.638;-2.020;2024-01-15T01:17:07;21.05;;;18.83;;
53959;SDS011;39866;48.638;-2.020;2024-01-15T01:19:32;22.02;;;19.58;;
53959;SDS011;39866;48.638;-2.020;2024-01-15T01:21:58;19.92;;;17.83;;
53959;SDS011;39866;48.638;-2.020;2024-01-15T01:24:23;22.60;;;20.27;;
53959;SDS011;39866;48.638;-2.020;2024-01-15T01:26:48;21.45;;;18.73;;
53959;SDS011;39866;48.638;-2.020;2024-01-15T01:29:14;22.90;;;20.50;;
53959;SDS011;39866;48.638;-2.020;2024-01-15T01:31:43;22.58;;;19.58;;
53959;SDS011;39866;48.638;-2.020;2024-01-15T01:34:09;21.63;;;19.38;;
53959;SDS011;39866;48.638;-2.020;2024-01-15T01:36:35;24.00;;;19.73;;
53959;SDS011;39866;48.638;-2.020;2024-01-15T01:39:00;21.05;;;18.83;;
53959;SDS011;39866;48.638;-2.020;2024-01-15T01:41:25;20.83;;;18.50;;
53959;SDS011;39866;48.638;-2.020;2024-01-15T01:43:51;21.80;;;19.48;;
53959;SDS011;39866;48.638;-2.020;2024-01-15T01:46:16;20.80;;;18.55;;
53959;SDS011;39866;48.638;-2.020;2024-01-15T01:48:42;19.52;;;17.42;;
53959;SDS011;39866;48.638;-2.020;2024-01-15T01:51:08;20.02;;;18.02;;
53959;SDS011;39866;48.638;-2.020;2024-01-15T01:53:33;20.55;;;18.50;;
53959;SDS011;39866;48.638;-2.020;2024-01-15T01:56:00;19.95;;;17.85;;
53959;SDS011;39866;48.638;-2.020;2024-01-15T01:58:26;20.25;;;18.25;;
53959;SDS011;39866;48.638;-2.020;2024-01-15T02:00:53;19.10;;;17.15;;
53959;SDS011;39866;48.638;-2.020;2024-01-15T02:03:19;18.90;;;17.00;;
53959;SDS011;39866;48.638;-2.020;2024-01-15T02:05:44;21.25;;;19.10;;
53959;SDS011;39866;48.638;-2.020;2024-01-15T02:08:13;20.67;;;18.48;;
53959;SDS011;39866;48.638;-2.020;2024-01-15T02:10:39;19.52;;;17.50;;
53959;SDS011;39866;48.638;-2.020;2024-01-15T02:13:04;19.63;;;17.52;;
53959;SDS011;39866;48.638;-2.020;2024-01-15T02:15:30;18.35;;;16.45;;
53959;SDS011;39866;48.638;-2.020;2024-01-15T02:17:56;20.48;;;18.33;;
53959;SDS011;39866;48.638;-2.020;2024-01-15T02:20:32;18.45;;;16.65;;
53959;SDS011;39866;48.638;-2.020;2024-01-15T02:23:05;19.98;;;17.73;;
53959;SDS011;39866;48.638;-2.020;2024-01-15T02:25:33;19.35;;;17.40;;
53959;SDS011;39866;48.638;-2.020;2024-01-15T02:27:58;20.52;;;18.35;;
53959;SDS011;39866;48.638;-2.020;2024-01-15T02:30:24;18.92;;;16.92;;
53959;SDS011;39866;48.638;-2.020;2024-01-15T02:32:50;19.00;;;17.00;;
53959;SDS011;39866;48.638;-2.020;2024-01-15T02:35:16;19.00;;;17.10;;
53959;SDS011;39866;48.638;-2.020;2024-01-15T02:37:41;19.65;;;17.58;;
53959;SDS011;39866;48.638;-2.020;2024-01-15T02:40:07;18.17;;;16.20;;
53959;SDS011;39866;48.638;-2.020;2024-01-15T02:42:32;20.63;;;18.42;;
53959;SDS011;39866;48.638;-2.020;2024-01-15T02:44:58;19.88;;;17.83;;
53959;SDS011;39866;48.638;-2.020;2024-01-15T02:47:23;20.15;;;18.08;;
53959;SDS011;39866;48.638;-2.020;2024-01-15T02:49:48;18.85;;;16.85;;
53959;SDS011;39866;48.638;-2.020;2024-01-15T02:52:14;19.55;;;17.48;;
53959;SDS011;39866;48.638;-2.020;2024-01-15T02:54:39;20.17;;;18.17;;
53959;SDS011;39866;48.638;-2.020;2024-01-15T02:57:04;20.55;;;18.35;;
53959;SDS011;39866;48.638;-2.020;2024-01-15T02:59:30;19.27;;;17.25;;
53959;SDS011;39866;48.638;-2.020;2024-01-15T03:01:55;18.40;;;16.10;;
53959;SDS011;39866;48.638;-2.020;2024-01-15T03:04:20;19.02;;;17.02;;
53959;SDS011;39866;48.638;-2.020;2024-01-15T03:06:45;19.52;;;17.50;;
53959;SDS011;39866;48.638;-2.020;2024-01-15T03:09:11;20.15;;;18.05;;
53959;SDS011;39866;48.638;-2.020;2024-01-15T03:11:37;19.30;;;17.30;;
53959;SDS011;39866;48.638;-2.020;2024-01-15T03:14:05;21.30;;;19.08;;
53959;SDS011;39866;48.638;-2.020;2024-01-15T03:16:31;19.75;;;17.75;;
53959;SDS011;39866;48.638;-2.020;2024-01-15T03:18:56;20.25;;;18.15;;
53959;SDS011;39866;48.638;-2.020;2024-01-15T03:21:21;20.73;;;18.63;;
53959;SDS011;39866;48.638;-2.020;2024-01-15T03:23:47;19.83;;;17.73;;
53959;SDS011;39866;48.638;-2.020;2024-01-15T03:26:12;19.58;;;17.67;;
53959;SDS011;39866;48.638;-2.020;2024-01-15T03:28:37;19.00;;;17.10;;
53959;SDS011;39866;48.638;-2.020;2024-01-15T03:31:03;18.40;;;16.60;;
53959;SDS011;39866;48.638;-2.020;2024-01-15T03:33:28;17.90;;;16.15;;
53959;SDS011;39866;48.638;-2.020;2024-01-15T03:35:53;19.63;;;17.63;;
53959;SDS011;39866;48.638;-2.020;2024-01-15T03:38:19;21.13;;;18.17;;
53959;SDS011;39866;48.638;-2.020;2024-01-15T03:40:44;18.55;;;16.65;;
53959;SDS011;39866;48.638;-2.020;2024-01-15T03:43:09;18.10;;;16.23;;
53959;SDS011;39866;48.638;-2.020;2024-01-15T03:45:35;19.45;;;17.40;;
53959;SDS011;39866;48.638;-2.020;2024-01-15T03:48:00;18.13;;;16.38;;
53959;SDS011;39866;48.638;-2.020;2024-01-15T03:50:25;18.02;;;16.13;;
53959;SDS011;39866;48.638;-2.020;2024-01-15T03:52:51;19.08;;;17.02;;
53959;SDS011;39866;48.638;-2.020;2024-01-15T03:55:16;18.83;;;17.02;;
53959;SDS011;39866;48.638;-2.020;2024-01-15T03:57:41;17.75;;;15.95;;
53959;SDS011;39866;48.638;-2.020;2024-01-15T04:00:07;19.20;;;17.15;;
53959;SDS011;39866;48.638;-2.020;2024-01-15T04:02:32;17.55;;;15.70;;
53959;SDS011;39866;48.638;-2.020;2024-01-15T04:04:58;18.15;;;16.35;;
53959;SDS011;39866;48.638;-2.020;2024-01-15T04:07:23;20.25;;;18.05;;
53959;SDS011;39866;48.638;-2.020;2024-01-15T04:09:48;19.05;;;17.15;;
53959;SDS011;39866;48.638;-2.020;2024-01-15T04:12:14;19.05;;;17.05;;
53959;SDS011;39866;48.638;-2.020;2024-01-15T04:14:39;18.70;;;16.80;;
53959;SDS011;39866;48.638;-2.020;2024-01-15T04:17:04;18.83;;;16.92;;
53959;SDS011;39866;48.638;-2.020;2024-01-15T04:19:30;17.75;;;16.05;;
53959;SDS011;39866;48.638;-2.020;2024-01-15T04:21:55;18.50;;;16.60;;
53959;SDS011;39866;48.638;-2.020;2024-01-15T04:24:20;17.23;;;15.43;;
53959;SDS011;39866;48.638;-2.020;2024-01-15T04:26:46;17.67;;;15.98;;
53959;SDS011;39866;48.638;-2.020;2024-01-15T04:29:11;19.17;;;17.17;;
53959;SDS011;39866;48.638;-2.020;2024-01-15T04:31:37;19.05;;;17.10;;
53959;SDS011;39866;48.638;-2.020;2024-01-15T04:34:02;18.88;;;16.85;;
53959;SDS011;39866;48.638;-2.020;2024-01-15T04:36:27;18.75;;;16.88;;
53959;SDS011;39866;48.638;-2.020;2024-01-15T04:38:53;19.52;;;17.58;;
53959;SDS011;39866;48.638;-2.020;2024-01-15T04:41:18;20.50;;;18.48;;
53959;SDS011;39866;48.638;-2.020;2024-01-15T04:43:43;20.80;;;18.77;;
53959;SDS011;39866;48.638;-2.020;2024-01-15T04:46:09;19.90;;;17.90;;
53959;SDS011;39866;48.638;-2.020;2024-01-15T04:48:34;19.83;;;17.88;;
53959;SDS011;39866;48.638;-2.020;2024-01-15T04:51:00;19.27;;;17.38;;
53959;SDS011;39866;48.638;-2.020;2024-01-15T04:53:26;20.58;;;18.00;;
53959;SDS011;39866;48.638;-2.020;2024-01-15T04:55:51;19.45;;;17.55;;
53959;SDS011;39866;48.638;-2.020;2024-01-15T04:58:17;20.23;;;18.23;;
53959;SDS011;39866;48.638;-2.020;2024-01-15T05:00:42;18.33;;;16.52;;
53959;SDS011;39866;48.638;-2.020;2024-01-15T05:03:07;19.00;;;17.10;;
53959;SDS011;39866;48.638;-2.020;2024-01-15T05:05:33;18.40;;;16.60;;
53959;SDS011;39866;48.638;-2.020;2024-01-15T05:07:58;18.55;;;16.70;;
53959;SDS011;39866;48.638;-2.020;2024-01-15T05:10:23;19.13;;;17.33;;
53959;SDS011;39866;48.638;-2.020;2024-01-15T05:12:49;17.73;;;15.93;;
53959;SDS011;39866;48.638;-2.020;2024-01-15T05:15:14;16.70;;;15.00;;
53959;SDS011;39866;48.638;-2.020;2024-01-15T05:17:39;15.10;;;13.60;;
53959;SDS011;39866;48.638;-2.020;2024-01-15T05:20:05;15.02;;;13.63;;
53959;SDS011;39866;48.638;-2.020;2024-01-15T05:22:31;13.27;;;11.95;;
53959;SDS011;39866;48.638;-2.020;2024-01-15T05:24:56;12.15;;;10.93;;
53959;SDS011;39866;48.638;-2.020;2024-01-15T05:27:21;12.20;;;10.98;;
53959;SDS011;39866;48.638;-2.020;2024-01-15T05:29:46;11.48;;;10.35;;
53959;SDS011;39866;48.638;-2.020;2024-01-15T05:32:12;11.68;;;10.48;;
53959;SDS011;39866;48.638;-2.020;2024-01-15T05:34:37;10.90;;;9.80;;
53959;SDS011;39866;48.638;-2.020;2024-01-15T05:37:02;11.82;;;8.95;;
53959;SDS011;39866;48.638;-2.020;2024-01-15T05:39:28;4.32;;;3.92;;
53959;SDS011;39866;48.638;-2.020;2024-01-15T05:41:53;4.53;;;4.13;;
53959;SDS011;39866;48.638;-2.020;2024-01-15T05:44:18;5.40;;;4.32;;
53959;SDS011;39866;48.638;-2.020;2024-01-15T05:46:44;5.15;;;4.70;;
53959;SDS011;39866;48.638;-2.020;2024-01-15T05:49:09;7.03;;;5.35;;
53959;SDS011;39866;48.638;-2.020;2024-01-15T05:51:35;5.63;;;5.10;;
53959;SDS011;39866;48.638;-2.020;2024-01-15T05:54:00;5.28;;;4.55;;
53959;SDS011;39866;48.638;-2.020;2024-01-15T05:56:26;4.72;;;4.32;;
53959;SDS011;39866;48.638;-2.020;2024-01-15T05:58:51;5.22;;;4.53;;
53959;SDS011;39866;48.638;-2.020;2024-01-15T06:01:17;7.20;;;5.32;;
53959;SDS011;39866;48.638;-2.020;2024-01-15T06:03:42;5.63;;;4.85;;
53959;SDS011;39866;48.638;-2.020;2024-01-15T06:06:08;6.75;;;4.97;;
53959;SDS011;39866;48.638;-2.020;2024-01-15T06:08:33;6.00;;;4.90;;
53959;SDS011;39866;48.638;-2.020;2024-01-15T06:10:59;5.18;;;4.72;;
53959;SDS011;39866;48.638;-2.020;2024-01-15T06:13:24;7.63;;;4.90;;
53959;SDS011;39866;48.638;-2.020;2024-01-15T06:15:50;4.70;;;4.20;;
53959;SDS011;39866;48.638;-2.020;2024-01-15T06:18:15;4.72;;;4.32;;
53959;SDS011;39866;48.638;-2.020;2024-01-15T06:20:40;4.90;;;4.43;;
53959;SDS011;39866;48.638;-2.020;2024-01-15T06:23:06;4.95;;;4.55;;
53959;SDS011;39866;48.638;-2.020;2024-01-15T06:25:31;5.95;;;5.45;;
53959;SDS011;39866;48.638;-2.020;2024-01-15T06:27:56;6.53;;;5.50;;
53959;SDS011;39866;48.638;-2.020;2024-01-15T06:30:22;8.50;;;6.57;;
53959;SDS011;39866;48.638;-2.020;2024-01-15T06:32:47;5.82;;;5.22;;
53959;SDS011;39866;48.638;-2.020;2024-01-15T06:35:12;6.53;;;5.63;;
53959;SDS011;39866;48.638;-2.020;2024-01-15T06:37:38;7.60;;;5.45;;
53959;SDS011;39866;48.638;-2.020;2024-01-15T06:40:03;8.23;;;6.03;;
53959;SDS011;39866;48.638;-2.020;2024-01-15T06:42:30;6.30;;;5.50;;
53959;SDS011;39866;48.638;-2.020;2024-01-15T06:44:55;4.88;;;4.47;;
53959;SDS011;39866;48.638;-2.020;2024-01-15T06:47:21;7.38;;;5.55;;
53959;SDS011;39866;48.638;-2.020;2024-01-15T06:49:47;5.25;;;4.75;;
53959;SDS011;39866;48.638;-2.020;2024-01-15T06:52:13;7.38;;;5.72;;
53959;SDS011;39866;48.638;-2.020;2024-01-15T06:54:38;6.50;;;5.90;;
53959;SDS011;39866;48.638;-2.020;2024-01-15T06:57:04;6.07;;;5.47;;
53959;SDS011;39866;48.638;-2.020;2024-01-15T06:59:31;7.22;;;5.85;;
53959;SDS011;39866;48.638;-2.020;2024-01-15T07:01:56;8.10;;;7.20;;
53959;SDS011;39866;48.638;-2.020;2024-01-15T07:04:22;6.97;;;6.28;;
53959;SDS011;39866;48.638;-2.020;2024-01-15T07:06:47;7.13;;;6.53;;
53959;SDS011;39866;48.638;-2.020;2024-01-15T07:09:13;7.60;;;6.93;;
53959;SDS011;39866;48.638;-2.020;2024-01-15T07:11:38;7.00;;;6.32;;
53959;SDS011;39866;48.638;-2.020;2024-01-15T07:14:08;7.72;;;7.00;;
53959;SDS011;39866;48.638;-2.020;2024-01-15T07:16:34;8.23;;;7.43;;
53959;SDS011;39866;48.638;-2.020;2024-01-15T07:18:59;9.43;;;8.50;;
53959;SDS011;39866;48.638;-2.020;2024-01-15T07:21:24;8.13;;;7.38;;
53959;SDS011;39866;48.638;-2.020;2024-01-15T07:23:50;7.70;;;7.00;;
53959;SDS011;39866;48.638;-2.020;2024-01-15T07:26:15;7.80;;;7.10;;
53959;SDS011;39866;48.638;-2.020;2024-01-15T07:28:40;8.13;;;7.38;;
53959;SDS011;39866;48.638;-2.020;2024-01-15T07:31:05;7.82;;;7.13;;
53959;SDS011;39866;48.638;-2.020;2024-01-15T07:33:31;7.05;;;6.35;;
53959;SDS011;39866;48.638;-2.020;2024-01-15T07:35:56;7.57;;;6.88;;
53959;SDS011;39866;48.638;-2.020;2024-01-15T07:38:22;8.32;;;7.50;;
53959;SDS011;39866;48.638;-2.020;2024-01-15T07:40:47;8.75;;;7.95;;
53959;SDS011;39866;48.638;-2.020;2024-01-15T07:43:14;8.90;;;8.20;;
53959;SDS011;39866;48.638;-2.020;2024-01-15T07:45:40;7.60;;;6.90;;
53959;SDS011;39866;48.638;-2.020;2024-01-15T07:48:05;8.40;;;7.60;;
53959;SDS011;39866;48.638;-2.020;2024-01-15T07:50:31;7.65;;;7.03;;
53959;SDS011;39866;48.638;-2.020;2024-01-15T07:52:56;8.80;;;7.93;;
53959;SDS011;39866;48.638;-2.020;2024-01-15T07:55:21;8.32;;;7.68;;
53959;SDS011;39866;48.638;-2.020;2024-01-15T07:57:47;8.77;;;7.97;;
53959;SDS011;39866;48.638;-2.020;2024-01-15T08:00:13;9.23;;;8.40;;
53959;SDS011;39866;48.638;-2.020;2024-01-15T08:02:38;8.25;;;7.45;;
53959;SDS011;39866;48.638;-2.020;2024-01-15T08:05:04;10.18;;;9.18;;
53959;SDS011;39866;48.638;-2.020;2024-01-15T08:07:29;9.13;;;8.32;;
53959;SDS011;39866;48.638;-2.020;2024-01-15T08:09:55;9.63;;;8.60;;
53959;SDS011;39866;48.638;-2.020;2024-01-15T08:12:20;10.50;;;8.88;;
53959;SDS011;39866;48.638;-2.020;2024-01-15T08:14:45;11.95;;;6.90;;
53959;SDS011;39866;48.638;-2.020;2024-01-15T08:17:11;9.23;;;6.18;;
53959;SDS011;39866;48.638;-2.020;2024-01-15T08:19:36;9.15;;;6.43;;
53959;SDS011;39866;48.638;-2.020;2024-01-15T08:22:02;6.80;;;5.82;;
53959;SDS011;39866;48.638;-2.020;2024-01-15T08:24:27;8.20;;;6.43;;
53959;SDS011;39866;48.638;-2.020;2024-01-15T08:26:53;7.65;;;6.95;;
53959;SDS011;39866;48.638;-2.020;2024-01-15T08:29:19;8.15;;;6.72;;
53959;SDS011;39866;48.638;-2.020;2024-01-15T08:31:46;8.73;;;6.80;;
53959;SDS011;39866;48.638;-2.020;2024-01-15T08:34:11;6.68;;;6.05;;
53959;SDS011;39866;48.638;-2.020;2024-01-15T08:36:36;5.90;;;5.40;;
53959;SDS011;39866;48.638;-2.020;2024-01-15T08:39:02;6.65;;;6.05;;
53959;SDS011;39866;48.638;-2.020;2024-01-15T08:41:29;7.10;;;6.50;;
53959;SDS011;39866;48.638;-2.020;2024-01-15T08:43:55;8.77;;;6.50;;
53959;SDS011;39866;48.638;-2.020;2024-01-15T08:46:21;5.93;;;5.22;;
53959;SDS011;39866;48.638;-2.020;2024-01-15T08:48:46;6.75;;;6.00;;
53959;SDS011;39866;48.638;-2.020;2024-01-15T08:51:11;7.95;;;6.65;;
53959;SDS011;39866;48.638;-2.020;2024-01-15T08:53:37;6.30;;;5.80;;
53959;SDS011;39866;48.638;-2.020;2024-01-15T08:56:02;6.95;;;6.20;;
53959;SDS011;39866;48.638;-2.020;2024-01-15T08:58:27;6.93;;;6.35;;
53959;SDS011;39866;48.638;-2.020;2024-01-15T09:00:53;6.85;;;6.25;;
53959;SDS011;39866;48.638;-2.020;2024-01-15T09:03:18;6.43;;;5.93;;
53959;SDS011;39866;48.638;-2.020;2024-01-15T09:05:44;6.25;;;5.68;;
53959;SDS011;39866;48.638;-2.020;2024-01-15T09:08:09;6.90;;;6.40;;
53959;SDS011;39866;48.638;-2.020;2024-01-15T09:10:35;6.97;;;6.35;;
53959;SDS011;39866;48.638;-2.020;2024-01-15T09:13:00;6.68;;;6.18;;
53959;SDS011;39866;48.638;-2.020;2024-01-15T09:15:25;6.50;;;6.00;;
53959;SDS011;39866;48.638;-2.020;2024-01-15T09:17:51;6.88;;;6.32;;
53959;SDS011;39866;48.638;-2.020;2024-01-15T09:20:16;6.40;;;5.90;;
53959;SDS011;39866;48.638;-2.020;2024-01-15T09:22:41;5.60;;;5.20;;
53959;SDS011;39866;48.638;-2.020;2024-01-15T09:25:08;6.20;;;5.70;;
53959;SDS011;39866;48.638;-2.020;2024-01-15T09:27:37;6.97;;;6.38;;
53959;SDS011;39866;48.638;-2.020;2024-01-15T09:30:03;6.53;;;6.00;;
53959;SDS011;39866;48.638;-2.020;2024-01-15T09:32:29;6.35;;;5.75;;
53959;SDS011;39866;48.638;-2.020;2024-01-15T09:34:55;6.53;;;5.93;;
53959;SDS011;39866;48.638;-2.020;2024-01-15T09:37:20;6.13;;;5.57;;
53959;SDS011;39866;48.638;-2.020;2024-01-15T09:39:46;5.95;;;5.53;;
53959;SDS011;39866;48.638;-2.020;2024-01-15T09:42:13;6.75;;;6.15;;
53959;SDS011;39866;48.638;-2.020;2024-01-15T09:44:39;7.10;;;6.55;;
53959;SDS011;39866;48.638;-2.020;2024-01-15T09:47:04;8.20;;;6.60;;
53959;SDS011;39866;48.638;-2.020;2024-01-15T09:49:30;9.60;;;5.93;;
53959;SDS011;39866;48.638;-2.020;2024-01-15T09:51:56;6.03;;;5.53;;
53959;SDS011;39866;48.638;-2.020;2024-01-15T09:54:23;9.00;;;6.38;;
53959;SDS011;39866;48.638;-2.020;2024-01-15T09:56:48;7.85;;;7.15;;
53959;SDS011;39866;48.638;-2.020;2024-01-15T09:59:15;8.25;;;7.38;;
53959;SDS011;39866;48.638;-2.020;2024-01-15T10:01:42;7.63;;;6.93;;
53959;SDS011;39866;48.638;-2.020;2024-01-15T10:04:09;7.38;;;6.72;;
53959;SDS011;39866;48.638;-2.020;2024-01-15T10:06:35;10.98;;;8.05;;
53959;SDS011;39866;48.638;-2.020;2024-01-15T10:09:01;8.68;;;7.88;;
53959;SDS011;39866;48.638;-2.020;2024-01-15T10:11:28;8.10;;;7.43;;
53959;SDS011;39866;48.638;-2.020;2024-01-15T10:13:53;8.77;;;7.50;;
53959;SDS011;39866;48.638;-2.020;2024-01-15T10:16:22;9.25;;;8.40;;
53959;SDS011;39866;48.638;-2.020;2024-01-15T10:18:48;8.65;;;7.85;;
53959;SDS011;39866;48.638;-2.020;2024-01-15T10:21:14;11.60;;;9.35;;
53959;SDS011;39866;48.638;-2.020;2024-01-15T10:23:40;8.43;;;7.72;;
53959;SDS011;39866;48.638;-2.020;2024-01-15T10:26:06;8.57;;;7.88;;
53959;SDS011;39866;48.638;-2.020;2024-01-15T10:28:31;8.88;;;7.97;;
53959;SDS011;39866;48.638;-2.020;2024-01-15T10:30:57;9.18;;;8.25;;
53959;SDS011;39866;48.638;-2.020;2024-01-15T10:33:26;7.45;;;6.75;;
53959;SDS011;39866;48.638;-2.020;2024-01-15T10:35:56;7.38;;;6.72;;
53959;SDS011;39866;48.638;-2.020;2024-01-15T10:38:23;7.43;;;6.63;;
53959;SDS011;39866;48.638;-2.020;2024-01-15T10:40:56;7.97;;;7.25;;
53959;SDS011;39866;48.638;-2.020;2024-01-15T10:43:21;9.57;;;7.63;;
53959;SDS011;39866;48.638;-2.020;2024-01-15T10:45:48;9.65;;;7.72;;
53959;SDS011;39866;48.638;-2.020;2024-01-15T10:48:18;7.90;;;7.20;;
53959;SDS011;39866;48.638;-2.020;2024-01-15T10:50:44;7.75;;;7.07;;
53959;SDS011;39866;48.638;-2.020;2024-01-15T10:53:11;8.52;;;7.57;;
53959;SDS011;39866;48.638;-2.020;2024-01-15T10:55:39;10.82;;;8.80;;
53959;SDS011;39866;48.638;-2.020;2024-01-15T10:58:07;11.60;;;10.38;;
53959;SDS011;39866;48.638;-2.020;2024-01-15T11:00:33;10.65;;;9.65;;
53959;SDS011;39866;48.638;-2.020;2024-01-15T11:03:01;17.45;;;14.38;;
53959;SDS011;39866;48.638;-2.020;2024-01-15T11:05:27;12.63;;;11.38;;
53959;SDS011;39866;48.638;-2.020;2024-01-15T11:07:56;8.50;;;7.70;;
53959;SDS011;39866;48.638;-2.020;2024-01-15T11:16:01;7.70;;;7.03;;
53959;SDS011;39866;48.638;-2.020;2024-01-15T11:18:28;8.30;;;7.70;;
53959;SDS011;39866;48.638;-2.020;2024-01-15T11:26:30;6.20;;;5.70;;
53959;SDS011;39866;48.638;-2.020;2024-01-15T11:29:02;6.78;;;6.10;;
53959;SDS011;39866;48.638;-2.020;2024-01-15T11:34:03;6.68;;;6.18;;
53959;SDS011;39866;48.638;-2.020;2024-01-15T11:37:12;5.85;;;5.45;;
53959;SDS011;39866;48.638;-2.020;2024-01-15T11:41:54;7.72;;;6.85;;
53959;SDS011;39866;48.638;-2.020;2024-01-15T11:44:20;21.63;;;18.60;;
53959;SDS011;39866;48.638;-2.020;2024-01-15T11:46:52;14.63;;;13.13;;
53959;SDS011;39866;48.638;-2.020;2024-01-15T11:52:36;12.93;;;10.40;;
53959;SDS011;39866;48.638;-2.020;2024-01-15T11:57:50;7.00;;;6.35;;
53959;SDS011;39866;48.638;-2.020;2024-01-15T12:00:17;7.43;;;6.72;;
53959;SDS011;39866;48.638;-2.020;2024-01-15T12:02:44;8.38;;;7.68;;
53959;SDS011;39866;48.638;-2.020;2024-01-15T12:05:14;7.35;;;6.65;;
53959;SDS011;39866;48.638;-2.020;2024-01-15T12:07:42;6.72;;;6.10;;
53959;SDS011;39866;48.638;-2.020;2024-01-15T12:10:11;8.50;;;7.70;;
53959;SDS011;39866;48.638;-2.020;2024-01-15T12:12:41;6.75;;;6.15;;
53959;SDS011;39866;48.638;-2.020;2024-01-15T12:15:09;8.18;;;6.85;;
53959;SDS011;39866;48.638;-2.020;2024-01-15T12:17:35;7.30;;;6.50;;
53959;SDS011;39866;48.638;-2.020;2024-01-15T12:20:01;6.90;;;6.40;;
53959;SDS011;39866;48.638;-2.020;2024-01-15T12:22:28;7.30;;;6.15;;
53959;SDS011;39866;48.638;-2.020;2024-01-15T12:24:53;7.78;;;7.07;;
53959;SDS011;39866;48.638;-2.020;2024-01-15T12:27:19;7.35;;;6.35;;
53959;SDS011;39866;48.638;-2.020;2024-01-15T12:29:45;7.50;;;6.88;;
53959;SDS011;39866;48.638;-2.020;2024-01-15T12:32:12;6.75;;;6.25;;
53959;SDS011;39866;48.638;-2.020;2024-01-15T12:34:37;6.85;;;6.35;;
53959;SDS011;39866;48.638;-2.020;2024-01-15T12:37:03;9.18;;;7.30;;
53959;SDS011;39866;48.638;-2.020;2024-01-15T12:39:29;8.70;;;7.53;;
53959;SDS011;39866;48.638;-2.020;2024-01-15T12:41:54;7.78;;;7.07;;
53959;SDS011;39866;48.638;-2.020;2024-01-15T12:44:20;7.28;;;6.68;;
53959;SDS011;39866;48.638;-2.020;2024-01-15T12:46:45;7.63;;;6.63;;
53959;SDS011;39866;48.638;-2.020;2024-01-15T12:49:12;9.13;;;7.47;;
53959;SDS011;39866;48.638;-2.020;2024-01-15T12:51:38;7.18;;;6.47;;
53959;SDS011;39866;48.638;-2.020;2024-01-15T12:54:03;9.30;;;6.70;;
53959;SDS011;39866;48.638;-2.020;2024-01-15T12:56:29;9.00;;;7.40;;
53959;SDS011;39866;48.638;-2.020;2024-01-15T12:58:54;7.40;;;6.57;;
53959;SDS011;39866;48.638;-2.020;2024-01-15T13:01:20;7.95;;;7.25;;
53959;SDS011;39866;48.638;-2.020;2024-01-15T13:03:46;8.43;;;7.80;;
53959;SDS011;39866;48.638;-2.020;2024-01-15T13:06:12;7.63;;;7.00;;
53959;SDS011;39866;48.638;-2.020;2024-01-15T13:08:37;8.10;;;7.40;;
53959;SDS011;39866;48.638;-2.020;2024-01-15T13:11:03;8.07;;;7.28;;
53959;SDS011;39866;48.638;-2.020;2024-01-15T13:13:31;7.82;;;7.10;;
53959;SDS011;39866;48.638;-2.020;2024-01-15T13:15:59;9.13;;;8.27;;
53959;SDS011;39866;48.638;-2.020;2024-01-15T13:18:25;7.28;;;6.75;;
53959;SDS011;39866;48.638;-2.020;2024-01-15T13:20:50;7.97;;;7.05;;
53959;SDS011;39866;48.638;-2.020;2024-01-15T13:23:16;10.10;;;8.13;;
53959;SDS011;39866;48.638;-2.020;2024-01-15T13:25:41;9.85;;;7.85;;
53959;SDS011;39866;48.638;-2.020;2024-01-15T13:28:07;11.07;;;7.70;;
53959;SDS011;39866;48.638;-2.020;2024-01-15T13:30:35;9.98;;;7.20;;
53959;SDS011;39866;48.638;-2.020;2024-01-15T13:33:01;10.35;;;7.35;;
53959;SDS011;39866;48.638;-2.020;2024-01-15T13:35:30;8.77;;;7.47;;
53959;SDS011;39866;48.638;-2.020;2024-01-15T13:37:55;14.45;;;7.78;;
53959;SDS011;39866;48.638;-2.020;2024-01-15T13:40:21;11.32;;;7.35;;
53959;SDS011;39866;48.638;-2.020;2024-01-15T13:42:46;11.32;;;7.95;;
53959;SDS011;39866;48.638;-2.020;2024-01-15T13:45:12;9.05;;;8.20;;
53959;SDS011;39866;48.638;-2.020;2024-01-15T13:47:41;10.30;;;7.60;;
53959;SDS011;39866;48.638;-2.020;2024-01-15T13:50:10;9.77;;;7.90;;
53959;SDS011;39866;48.638;-2.020;2024-01-15T13:52:35;10.27;;;7.45;;
53959;SDS011;39866;48.638;-2.020;2024-01-15T13:55:01;10.10;;;8.20;;
53959;SDS011;39866;48.638;-2.020;2024-01-15T13:57:26;8.75;;;7.95;;
53959;SDS011;39866;48.638;-2.020;2024-01-15T13:59:55;9.60;;;8.07;;
53959;SDS011;39866;48.638;-2.020;2024-01-15T14:02:20;8.55;;;7.20;;
53959;SDS011;39866;48.638;-2.020;2024-01-15T14:04:46;10.20;;;7.88;;
53959;SDS011;39866;48.638;-2.020;2024-01-15T14:07:12;8.02;;;7.25;;
53959;SDS011;39866;48.638;-2.020;2024-01-15T14:09:37;11.40;;;8.05;;
53959;SDS011;39866;48.638;-2.020;2024-01-15T14:12:06;8.88;;;7.93;;
53959;SDS011;39866;48.638;-2.020;2024-01-15T14:14:31;10.38;;;8.95;;
53959;SDS011;39866;48.638;-2.020;2024-01-15T14:16:56;9.70;;;7.57;;
53959;SDS011;39866;48.638;-2.020;2024-01-15T14:19:22;11.00;;;8.32;;
53959;SDS011;39866;48.638;-2.020;2024-01-15T14:21:47;9.05;;;7.97;;
53959;SDS011;39866;48.638;-2.020;2024-01-15T14:24:12;8.93;;;8.05;;
53959;SDS011;39866;48.638;-2.020;2024-01-15T14:26:38;8.55;;;7.75;;
53959;SDS011;39866;48.638;-2.020;2024-01-15T14:29:03;8.57;;;7.78;;
53959;SDS011;39866;48.638;-2.020;2024-01-15T14:31:30;9.75;;;7.25;;
53959;SDS011;39866;48.638;-2.020;2024-01-15T14:33:58;9.20;;;8.43;;
53959;SDS011;39866;48.638;-2.020;2024-01-15T14:36:24;11.00;;;8.43;;
53959;SDS011;39866;48.638;-2.020;2024-01-15T14:38:49;9.23;;;8.38;;